createdAt,value
2018-06-13T00:06:48.348Z,1.37
2018-06-13T00:11:52.305Z,1.60
2018-06-13T00:16:56.055Z,2.03
2018-06-13T00:21:59.899Z,1.80
2018-06-13T00:27:03.894Z,1.63
2018-06-13T00:32:07.885Z,2.07
2018-06-13T00:37:11.898Z,1.60
2018-06-13T00:42:15.947Z,1.90
2018-06-13T00:47:19.913Z,2.03
2018-06-13T00:52:23.887Z,1.60
2018-06-13T00:57:27.904Z,1.80
2018-06-13T01:02:31.877Z,2.03
2018-06-13T01:07:35.845Z,1.40
2018-06-13T01:12:39.840Z,1.60
2018-06-13T01:17:43.857Z,1.70
2018-06-13T01:22:47.833Z,1.63
2018-06-13T01:27:51.800Z,1.73
2018-06-13T01:32:55.790Z,1.70
2018-06-13T01:37:59.765Z,1.60
2018-06-13T01:43:03.907Z,1.60
2018-06-13T01:48:07.875Z,1.70
2018-06-13T01:53:11.851Z,1.70
2018-06-13T01:58:15.839Z,1.43
2018-06-13T02:03:19.859Z,1.57
2018-06-13T02:08:23.618Z,1.47
2018-06-13T02:13:27.462Z,1.90
2018-06-13T02:18:31.447Z,2.10
2018-06-13T02:23:35.462Z,1.80
2018-06-13T02:28:39.445Z,2.20
2018-06-13T02:33:43.423Z,2.07
2018-06-13T02:38:47.439Z,1.70
2018-06-13T02:43:51.417Z,2.40
2018-06-13T02:48:55.888Z,2.53
2018-06-13T02:53:59.880Z,2.00
2018-06-13T02:59:03.863Z,2.33
2018-06-13T03:04:07.870Z,2.23
2018-06-13T03:09:11.920Z,2.17
2018-06-13T03:14:15.824Z,2.10
2018-06-13T03:19:19.563Z,2.37
2018-06-13T03:24:23.459Z,3.00
2018-06-13T03:29:27.193Z,2.83
2018-06-13T03:34:31.043Z,3.63
2018-06-13T03:39:35.025Z,2.67
2018-06-13T03:44:39.050Z,2.53
2018-06-13T03:49:43.040Z,2.50
2018-06-13T03:54:47.020Z,2.57
2018-06-13T03:59:51.051Z,2.50
2018-06-13T04:04:55.010Z,2.50
2018-06-13T04:09:59.012Z,2.30
2018-06-13T04:15:02.984Z,2.57
2018-06-13T04:20:07.070Z,2.30
2018-06-13T04:25:11.045Z,2.00
2018-06-13T04:30:15.919Z,2.00
2018-06-13T04:35:19.911Z,1.93
2018-06-13T04:40:23.876Z,2.17
2018-06-13T04:45:27.902Z,2.70
2018-06-13T04:50:31.907Z,2.77
2018-06-13T04:55:35.897Z,2.50
2018-06-13T05:00:40.187Z,2.90
2018-06-13T05:05:45.012Z,2.10
2018-06-13T05:10:49.007Z,2.60
2018-06-13T05:15:52.983Z,2.10
2018-06-13T05:20:56.950Z,2.40
2018-06-13T05:26:00.961Z,2.23
2018-06-13T05:31:04.942Z,2.60
2018-06-13T05:36:08.912Z,2.80
2018-06-13T05:41:12.899Z,3.13
2018-06-13T05:46:16.930Z,2.50
2018-06-13T05:51:20.897Z,2.20
2018-06-13T05:56:24.642Z,2.53
2018-06-13T06:01:28.552Z,2.17
2018-06-13T06:06:32.502Z,1.70
2018-06-13T06:11:36.322Z,1.73
2018-06-13T06:16:40.176Z,1.97
2018-06-13T06:21:44.166Z,2.30
2018-06-13T06:26:48.159Z,2.70
2018-06-13T06:31:52.139Z,1.83
2018-06-13T06:36:56.179Z,2.30
2018-06-13T06:42:00.091Z,2.73
2018-06-13T06:47:04.109Z,2.30
2018-06-13T06:52:08.099Z,1.73
2018-06-13T06:57:12.099Z,2.03
2018-06-13T07:02:16.088Z,1.93
2018-06-13T07:07:20.048Z,2.80
2018-06-13T07:12:24.039Z,2.43
2018-06-13T07:17:28.001Z,2.50
2018-06-13T07:22:31.994Z,2.30
2018-06-13T07:27:35.982Z,1.97
2018-06-13T07:32:39.984Z,2.20
2018-06-13T07:37:43.958Z,1.70
2018-06-13T07:42:47.951Z,1.93
2018-06-13T07:48:22.709Z,1.87
2018-06-13T07:53:26.460Z,1.93
2018-06-13T07:58:30.310Z,1.70
2018-06-13T08:03:34.301Z,1.63
2018-06-13T08:08:38.327Z,1.80
2018-06-13T08:13:42.182Z,1.63
2018-06-13T08:18:46.184Z,2.00
2018-06-13T08:23:51.067Z,1.70
2018-06-13T08:28:55.055Z,1.83
2018-06-13T08:33:59.051Z,1.80
2018-06-13T08:39:03.095Z,2.07
2018-06-13T08:44:07.069Z,2.33
2018-06-13T08:49:11.136Z,2.43
2018-06-13T08:54:15.119Z,2.80
2018-06-13T08:59:19.113Z,2.33
2018-06-13T09:04:23.068Z,2.90
2018-06-13T09:09:27.097Z,1.80
2018-06-13T09:14:31.093Z,1.87
2018-06-13T09:19:35.114Z,1.77
2018-06-13T09:24:39.134Z,1.67
2018-06-13T09:29:43.111Z,1.50
2018-06-13T09:34:47.098Z,1.60
2018-06-13T09:39:51.076Z,1.17
2018-06-13T09:44:54.807Z,1.50
2018-06-13T09:49:58.703Z,1.70
2018-06-13T09:55:02.479Z,1.33
2018-06-13T10:00:11.732Z,2.00
2018-06-13T10:05:15.860Z,1.77
2018-06-13T10:10:19.831Z,1.90
2018-06-13T10:15:23.811Z,2.10
2018-06-13T10:20:27.791Z,2.57
2018-06-13T10:25:31.615Z,2.80
2018-06-13T10:30:35.394Z,2.20
2018-06-13T10:35:39.349Z,1.90
2018-06-13T10:40:43.099Z,2.57
2018-06-13T10:45:46.938Z,2.67
2018-06-13T10:50:50.919Z,2.20
2018-06-13T10:55:54.646Z,2.30
2018-06-13T11:00:58.511Z,2.63
2018-06-13T11:06:02.467Z,2.47
2018-06-13T11:11:07.319Z,2.90
2018-06-13T11:16:11.264Z,2.60
2018-06-13T11:21:15.243Z,2.17
2018-06-13T11:26:19.318Z,2.20
2018-06-13T11:31:23.272Z,2.30
2018-06-13T11:36:27.291Z,1.90
2018-06-13T11:41:31.339Z,1.97
2018-06-13T11:46:36.386Z,1.50
2018-06-13T11:51:40.358Z,1.80
2018-06-13T11:56:44.351Z,2.30
2018-06-13T12:01:48.892Z,2.33
2018-06-13T12:06:53.726Z,1.90
2018-06-13T12:11:57.752Z,2.40
2018-06-13T12:17:01.888Z,2.47
2018-06-13T12:22:05.815Z,1.97
2018-06-13T12:27:09.888Z,1.90
2018-06-13T12:32:13.866Z,2.00
2018-06-13T12:37:17.843Z,1.57
2018-06-13T12:42:21.861Z,1.70
2018-06-13T12:47:25.843Z,1.73
2018-06-13T12:52:29.845Z,2.40
2018-06-13T12:57:33.855Z,2.50
2018-06-13T13:02:37.853Z,2.03
2018-06-13T13:07:41.579Z,2.03
2018-06-13T13:12:45.479Z,1.60
2018-06-13T13:17:49.448Z,2.17
2018-06-13T13:22:54.232Z,1.77
2018-06-13T13:27:58.225Z,2.40
2018-06-13T13:33:02.217Z,1.70
2018-06-13T13:38:05.956Z,2.20
2018-06-13T13:43:09.850Z,2.73
2018-06-13T13:48:13.851Z,2.80
2018-06-13T13:53:17.955Z,2.20
2018-06-13T13:58:21.960Z,2.17
2018-06-13T14:03:25.954Z,2.20
2018-06-13T14:08:29.983Z,2.33
2018-06-13T14:13:34.012Z,2.10
2018-06-13T14:18:37.763Z,1.93
2018-06-13T14:23:41.603Z,2.00
2018-06-13T14:28:45.579Z,2.10
2018-06-13T14:33:49.418Z,2.43
2018-06-13T14:38:53.043Z,2.47
2018-06-13T14:43:56.882Z,2.13
2018-06-13T14:49:00.860Z,2.07
2018-06-13T14:54:05.124Z,1.57
2018-06-13T14:59:09.131Z,1.57
2018-06-13T15:04:14.022Z,1.53
2018-06-13T15:09:18.020Z,1.87
2018-06-13T15:14:22.014Z,1.70
2018-06-13T15:19:25.994Z,1.60
2018-06-13T15:24:30.007Z,1.73
2018-06-13T15:29:34.008Z,1.43
2018-06-13T15:34:37.982Z,1.97
2018-06-13T15:39:41.927Z,2.00
2018-06-13T15:44:45.935Z,1.77
2018-06-13T15:49:49.912Z,1.70
2018-06-13T15:54:53.903Z,1.60
2018-06-13T15:59:57.640Z,1.70
2018-06-13T16:05:01.500Z,2.00
2018-06-13T16:10:05.586Z,1.70
2018-06-13T16:15:09.587Z,1.47
2018-06-13T16:20:13.369Z,1.77
2018-06-13T16:25:17.198Z,1.70
2018-06-13T16:30:21.179Z,1.80
2018-06-13T16:35:25.182Z,1.80
2018-06-13T16:40:29.167Z,2.10
2018-06-13T16:45:33.124Z,1.90
2018-06-13T16:50:49.140Z,1.83
2018-06-13T16:55:53.472Z,1.77
2018-06-13T17:00:57.455Z,1.93
2018-06-13T17:06:01.470Z,1.83
2018-06-13T17:11:05.450Z,2.00
2018-06-13T17:16:09.444Z,2.30
2018-06-13T17:21:13.457Z,2.17
2018-06-13T17:26:17.484Z,2.60
2018-06-13T17:31:21.477Z,2.30
2018-06-13T17:36:25.959Z,2.70
2018-06-13T17:41:29.948Z,2.30
2018-06-13T17:46:33.955Z,2.00
2018-06-13T17:51:37.726Z,2.27
2018-06-13T17:56:43.121Z,2.13
2018-06-13T18:01:47.110Z,2.07
2018-06-13T18:06:51.091Z,2.40
2018-06-13T18:11:55.097Z,2.00
2018-06-13T18:16:59.100Z,2.13
2018-06-13T18:22:03.112Z,1.80
2018-06-13T18:27:07.100Z,1.80
2018-06-13T18:32:11.093Z,1.70
2018-06-13T18:37:15.079Z,1.50
2018-06-13T18:42:19.200Z,1.60
2018-06-13T18:47:23.176Z,1.80
2018-06-13T18:52:27.211Z,1.60
2018-06-13T18:57:31.264Z,1.80
2018-06-13T19:02:35.183Z,1.50
2018-06-13T19:07:39.153Z,1.60
2018-06-13T19:12:43.187Z,2.00
2018-06-13T19:17:47.180Z,1.93
2018-06-13T19:22:51.644Z,1.80
2018-06-13T19:27:55.631Z,1.53
2018-06-13T19:32:59.665Z,2.00
2018-06-13T19:38:03.648Z,1.47
2018-06-13T19:43:12.974Z,1.50
2018-06-13T19:48:22.079Z,2.50
2018-06-13T19:53:31.383Z,1.90
2018-06-13T19:58:36.380Z,2.30
2018-06-13T20:03:45.694Z,1.97
2018-06-13T20:08:49.458Z,1.63
2018-06-13T20:13:58.628Z,2.07
2018-06-13T20:19:08.024Z,1.97
2018-06-13T20:24:12.007Z,2.20
2018-06-13T20:29:21.266Z,2.07
2018-06-13T20:34:25.233Z,2.20
2018-06-13T20:39:29.287Z,2.10
2018-06-13T20:44:33.087Z,2.00
2018-06-13T20:49:36.943Z,2.20
2018-06-13T20:54:40.956Z,2.10
2018-06-13T20:59:45.006Z,2.07
2018-06-13T21:04:49.008Z,2.50
2018-06-13T21:09:53.022Z,2.10
2018-06-13T21:14:57.026Z,1.90
2018-06-13T21:20:00.947Z,2.20
2018-06-13T21:25:04.983Z,2.17
2018-06-13T21:30:08.958Z,2.37
2018-06-13T21:35:12.921Z,2.73
2018-06-13T21:40:16.951Z,2.60
2018-06-13T21:45:20.909Z,3.77
2018-06-13T21:50:24.907Z,3.83
2018-06-13T21:55:28.890Z,4.20
2018-06-13T22:00:33.612Z,3.37
2018-06-13T22:05:38.499Z,5.90
2018-06-13T22:10:42.259Z,3.83
2018-06-13T22:15:46.157Z,4.20
2018-06-13T22:20:50.165Z,4.57
2018-06-13T22:25:54.127Z,5.50
2018-06-13T22:30:58.152Z,3.77
2018-06-13T22:36:02.139Z,4.70
2018-06-13T22:41:06.223Z,4.63
2018-06-13T22:46:13.468Z,4.60
2018-06-13T22:51:17.467Z,5.37
2018-06-13T22:56:21.443Z,4.60
2018-06-13T23:01:25.452Z,5.47
2018-06-13T23:06:29.429Z,4.40
2018-06-13T23:11:33.425Z,4.50
2018-06-13T23:16:38.367Z,4.70
2018-06-13T23:21:42.401Z,5.17
2018-06-13T23:26:46.428Z,4.80
2018-06-13T23:31:50.134Z,5.30
2018-06-13T23:36:54.009Z,5.47
2018-06-13T23:41:58.036Z,4.57
2018-06-13T23:47:02.028Z,4.93
2018-06-13T23:52:06.076Z,5.30
2018-06-13T23:57:10.064Z,5.83
